Flight Track Log - Related Links

Times and Time Zones

All times are in EDT time to prevent confusion due to time zone crossing. See the GJS3706 flight status page for this flight to view local times or setup timezone preferences in your user account.

Time Position Orientation Groundspeed Altitude Reporting Facility
EDT Latitude Longitude Course Direction KTS MPH feet Rate Location/Type
Thu 06:58:44 AM 43.6539 -70.4200 243° Southwest 195 224 3,400  Level Boston Center
Thu 06:59:44 AM 43.6633 -70.4942 280° West 215 247 5,700 2,550 Climbing Boston Center
Thu 07:00:44 AM 43.6817 -70.5911 285° West 234 269 8,500 2,550 Climbing Boston Center
Thu 07:01:44 AM 43.6933 -70.6714 281° West 241 277 10,800 2,100 Climbing Boston Center
Thu 07:02:44 AM 43.6744 -70.7894 258° West 261 300 12,700 1,900 Climbing Boston Center
Thu 07:03:00 AM 43.7192 -70.7675 264° West  Level FlightAware Approximate
Thu 07:03:44 AM 43.6569 -70.8906 257° West 300 345 14,600  Level Boston Center
Thu 07:04:00 AM 43.6899 -70.8882 243° Southwest  Level FlightAware Approximate
Thu 07:04:44 AM 43.6336 -71.0231 256° West 317 365 16,800  Level Boston Center
Thu 07:05:44 AM 43.6183 -71.1325 259° West 323 372 18,900 2,100 Climbing Boston Center
Thu 07:06:44 AM 43.6072 -71.2617 263° West 323 372 21,000 1,950 Climbing Boston Center
Thu 07:07:44 AM 43.6064 -71.3878 270° West 323 372 22,800 1,750 Climbing Boston Center
Thu 07:08:44 AM 43.6033 -71.5111 268° West 323 372 24,500 1,650 Climbing Boston Center
Thu 07:09:44 AM 43.6042 -71.6258 271° West 332 382 26,100 1,600 Climbing Boston Center
Thu 07:10:44 AM 43.6008 -71.7492 268° West 332 382 27,700 1,300 Climbing Boston Center
Thu 07:11:44 AM 43.5994 -71.8725 269° West 326 375 28,700 1,000 Climbing Boston Center
Thu 07:12:44 AM 43.5958 -71.9986 268° West 331 381 29,700 1,000 Climbing Boston Center
Thu 07:13:44 AM 43.5942 -72.1275 269° West 331 381 30,700 1,000 Climbing Boston Center
Thu 07:14:44 AM 43.5903 -72.2567 268° West 331 381 31,700 1,000 Climbing Boston Center
Thu 07:15:44 AM 43.5883 -72.3886 269° West 337 388 32,700 1,000 Climbing Boston Center
Thu 07:16:44 AM 43.5842 -72.5175 267° West 337 388 33,700 1,050 Climbing Boston Center
Thu 07:17:44 AM 43.5797 -72.6464 267° West 337 388 34,800 1,000 Climbing Boston Center
Thu 07:18:44 AM 43.5775 -72.7753 269° West 337 388 35,700 545 Climbing Boston Center
Thu 07:19:56 AM 43.5750 -72.9014 268° West 337 388 36,000 136 Climbing Boston Center
Thu 07:20:56 AM 43.5658 -73.0447 265° West 342 394 36,000  Level Boston Center
Thu 07:21:56 AM 43.5608 -73.2022 268° West 347 399 36,000  Level Boston Center
Thu 07:23:08 AM 43.5578 -73.3397 268° West 352 405 36,000  Level Boston Center
Thu 07:24:08 AM 43.5519 -73.5058 267° West 358 412 36,000  Level Boston Center
Thu 07:25:08 AM 43.5464 -73.6461 267° West 364 419 36,000  Level Boston Center
Thu 07:26:08 AM 43.5408 -73.7864 267° West 364 419 36,000  Level Boston Center
Thu 07:27:08 AM 43.5369 -73.9294 268° West 364 419 36,000  Level Boston Center
Thu 07:28:08 AM 43.5289 -74.0694 266° West 364 419 36,000  Level Boston Center
Thu 07:29:08 AM 43.5269 -74.1956 269° West 364 419 36,000  Level Boston Center
Thu 07:30:08 AM 43.5206 -74.3383 267° West 364 419 36,000  Level Boston Center
Thu 07:31:08 AM 43.5139 -74.4814 266° West 364 419 36,000  Level Boston Center
Thu 07:32:08 AM 43.5092 -74.6214 267° West 364 419 36,000  Level Boston Center
Thu 07:33:08 AM 43.5042 -74.7617 267° West 364 419 36,000  Level Boston Center
Thu 07:34:08 AM 43.4972 -74.9044 266° West 364 419 36,000  Level Boston Center
Thu 07:35:08 AM 43.4942 -75.0447 268° West 364 419 36,000  Level Boston Center
Thu 07:36:08 AM 43.4883 -75.2019 267° West 364 419 36,000  Level Boston Center
Thu 07:37:08 AM 43.4806 -75.3444 266° West 370 426 36,000  Level Boston Center
Thu 07:38:08 AM 43.4706 -75.4842 264° West 375 432 36,000  Level Boston Center
Thu 07:39:08 AM 43.4647 -75.6269 267° West 375 432 36,000  Level Boston Center
Thu 07:40:08 AM 43.4564 -75.7725 266° West 375 432 36,000  Level Boston Center
Thu 07:41:08 AM 43.4481 -75.9122 265° West 375 432 36,000  Level Boston Center
Thu 07:42:08 AM 43.4417 -76.0550 267° West 375 432 36,000  Level Boston Center
Thu 07:44:20 AM 43.4236 -76.3697 266° West 379 436 36,000  Level Cleveland Center
Thu 07:45:20 AM 43.4142 -76.5103 265° West 374 430 36,000  Level Cleveland Center
Thu 07:46:20 AM 43.4044 -76.6539 265° West 374 430 36,000  Level Cleveland Center
Thu 07:47:20 AM 43.3967 -76.7975 266° West 374 430 36,000  Level Cleveland Center
Thu 07:48:20 AM 43.3867 -76.9408 265° West 374 430 36,000  Level Cleveland Center
Thu 07:49:20 AM 43.3781 -77.0672 265° West 374 430 36,000  Level Cleveland Center
Thu 07:50:21 AM 43.3697 -77.2103 265° West 374 430 36,000  Level Cleveland Center
Thu 07:51:21 AM 43.3594 -77.3539 264° West 374 430 36,000  Level Cleveland Center
Thu 07:52:21 AM 43.3486 -77.5000 264° West 379 436 36,000  Level Cleveland Center
Thu 07:53:20 AM 43.3400 -77.6431 265° West 379 436 36,000  Level Cleveland Center
Thu 07:54:20 AM 43.3289 -77.7892 264° West 384 442 36,000  Level Cleveland Center
Thu 07:55:21 AM 43.3178 -77.9325 264° West 384 442 36,000  Level Cleveland Center
Thu 07:56:21 AM 43.3064 -78.0783 264° West 389 448 36,000  Level Cleveland Center
Thu 07:57:20 AM 43.2969 -78.2242 265° West 389 448 36,000  Level Cleveland Center
Thu 07:58:20 AM 43.2853 -78.3703 264° West 389 448 36,000  Level Cleveland Center
Thu 07:59:20 AM 43.2753 -78.5131 265° West 389 448 36,000  Level Cleveland Center
Thu 08:00:20 AM 43.2633 -78.6617 264° West 389 448 36,000 198 Level Cleveland Center
Thu 08:01:21 AM 43.2511 -78.8075 263° West 389 448 36,400 694 Climbing Cleveland Center
Thu 08:02:21 AM 43.2406 -78.9503 264° West 389 448 37,400 738 Climbing Cleveland Center
Thu 08:03:31 AM 43.2167 -79.1000 258° West 360 414 38,000 277 Climbing Toronto Center
Thu 08:04:31 AM 43.2000 -79.2500 261° West 370 426 38,000  Level Toronto Center
Thu 08:05:31 AM 43.1833 -79.3833 260° West 380 437 38,000  Level Toronto Center
Thu 08:06:31 AM 43.1833 -79.5167 270° West 390 449 38,000  Level Toronto Center
Thu 08:07:31 AM 43.1667 -79.6833 262° West 390 449 38,000  Level Toronto Center
Thu 08:08:31 AM 43.1500 -79.8167 260° West 390 449 38,000  Level Toronto Center
Thu 08:09:31 AM 43.1333 -79.9833 262° West 390 449 38,000  Level Toronto Center
Thu 08:10:31 AM 43.1333 -80.1167 270° West 390 449 38,000  Level Toronto Center
Thu 08:11:31 AM 43.1167 -80.2667 261° West 390 449 38,000  Level Toronto Center
Thu 08:12:31 AM 43.1000 -80.4167 261° West 380 437 38,000  Level Toronto Center
Thu 08:13:31 AM 43.0833 -80.5667 261° West 380 437 38,000  Level Toronto Center
Thu 08:14:31 AM 43.0667 -80.7000 260° West 380 437 38,000  Level Toronto Center
Thu 08:15:31 AM 43.0500 -80.8500 261° West 380 437 38,000  Level Toronto Center
Thu 08:16:31 AM 43.0333 -80.9833 260° West 380 437 38,000  Level Toronto Center
Thu 08:17:31 AM 43.0167 -81.1333 261° West 380 437 38,000  Level Toronto Center
Thu 08:18:31 AM 43.0167 -81.2667 270° West 380 437 38,000  Level Toronto Center
Thu 08:19:31 AM 43.0167 -81.4333 270° West 380 437 38,000  Level Toronto Center
Thu 08:20:31 AM 43.0167 -81.5667 270° West 380 437 38,000  Level Toronto Center
Thu 08:21:31 AM 43.0167 -81.7333 270° West 390 449 38,000  Level Toronto Center
Thu 08:22:31 AM 43.0167 -81.8667 270° West 390 449 38,000  Level Toronto Center
Thu 08:23:31 AM 43.0000 -82.0333 262° West 390 449 38,000  Level Toronto Center
Thu 08:24:31 AM 43.0000 -82.1667 270° West 390 449 38,000  Level Toronto Center
Thu 08:25:31 AM 43.0000 -82.3167 270° West 390 449 38,000  Level Toronto Center
Thu 08:26:31 AM 43.0000 -82.4667 270° West 390 449 38,000 -250 Level Toronto Center
Thu 08:27:31 AM 43.0000 -82.6167 270° West 390 449 37,500 -700 Descending Toronto Center
Thu 08:28:31 AM 42.9833 -82.7500 260° West 390 449 36,600 -1,000 Descending Toronto Center
Thu 08:29:31 AM 42.9833 -82.9167 270° West 390 449 35,500 -1,000 Descending Toronto Center
Thu 08:30:31 AM 42.9833 -83.0500 270° West 390 449 34,600 -1,000 Descending Toronto Center
Thu 08:31:31 AM 42.9667 -83.2167 262° West 390 449 33,500 -1,050 Descending Toronto Center
Thu 08:32:31 AM 42.9667 -83.3500 270° West 400 460 32,500 -750 Descending Toronto Center
Thu 08:33:31 AM 42.9667 -83.5000 270° West 400 460 32,000 -250 Descending Toronto Center
Thu 08:34:31 AM 42.9667 -83.6667 270° West 400 460 32,000  Level Toronto Center
Thu 08:35:31 AM 42.9333 -83.8000 251° West 410 472 32,000  Level Toronto Center
Thu 08:36:31 AM 42.9333 -83.9667 270° West 410 472 32,000  Level Toronto Center
Thu 08:37:31 AM 42.9333 -84.1167 270° West 410 472 32,000  Level Toronto Center
Thu 08:38:11 AM 42.9203 -84.2131 260° West 410 472 32,000  Level Chicago Center
Thu 08:38:44 AM 42.9108 -84.3025 262° West 407 468 32,000  Level Cleveland Center
Thu 08:39:44 AM 42.8950 -84.4633 262° West 407 468 32,000  Level Cleveland Center
Thu 08:40:15 AM 42.8897 -84.5189 263° West 407 468 32,000  Level Chicago Center
Thu 08:41:17 AM 42.8717 -84.6994 262° West 403 464 32,000  Level Chicago Center
Thu 08:42:19 AM 42.8553 -84.8497 262° West 401 461 32,000  Level Chicago Center
Thu 08:43:21 AM 42.8403 -84.9992 262° West 400 460 32,000  Level Chicago Center
Thu 08:44:23 AM 42.8239 -85.1492 262° West 400 460 32,000 -48 Level Chicago Center
Thu 08:45:25 AM 42.8081 -85.2981 262° West 398 458 31,900 -905 Descending Chicago Center
Thu 08:46:29 AM 42.7906 -85.4508 261° West 407 468 30,100 -1,790 Descending Chicago Center
Thu 08:47:29 AM 42.7672 -85.6075 259° West 418 481 28,200 -2,066 Descending Chicago Center
Thu 08:48:31 AM 42.7344 -85.7867 256° West 407 468 25,900 -2,032 Descending Chicago Center
Thu 08:49:33 AM 42.7075 -85.9342 256° West 401 461 24,000 -1,790 Descending Chicago Center
Thu 08:50:35 AM 42.6811 -86.0792 256° West 394 453 22,200 -1,742 Descending Chicago Center
Thu 08:51:37 AM 42.6550 -86.2219 256° West 389 448 20,400 -1,403 Descending Chicago Center
Thu 08:52:39 AM 42.6278 -86.3578 255° West 371 427 19,300 -1,306 Descending Chicago Center
Thu 08:53:41 AM 42.6022 -86.4967 256° West 376 433 17,700 -1,500 Descending Chicago Center
Thu 08:54:43 AM 42.5783 -86.6308 256° West 368 423 16,200 -1,694 Descending Chicago Center
Thu 08:55:45 AM 42.5472 -86.7831 255° West 350 403 14,200 -1,790 Descending Chicago Center
Thu 08:56:47 AM 42.5144 -86.8997 249° West 334 384 12,500 -1,694 Descending Chicago Center
Thu 08:57:49 AM 42.4825 -87.0142 249° West 328 377 10,700 -1,452 Descending Chicago Center
Thu 08:58:51 AM 42.4108 -87.0883 217° Southwest 325 374 9,500 -829 Descending Chicago Center
Thu 08:59:52 AM 42.3436 -87.1453 212° Southwest 289 333 9,000 -634 Descending Chicago Center
Thu 09:00:54 AM 42.2706 -87.2044 211° Southwest 276 318 8,200 -968 Descending Chicago Center
Thu 09:01:56 AM 42.2061 -87.2528 209° Southwest 266 306 7,000 -581 Descending Chicago Center
Thu 09:02:58 AM 42.1261 -87.2578 183° South 287 330 7,000  Level Chicago Center
Thu 09:04:00 AM 42.0472 -87.2650 184° South 285 328 7,000  Level Chicago Center
Thu 09:05:02 AM 41.9875 -87.2989 203° Southwest 248 285 7,000  Level Chicago Center
Thu 09:06:04 AM 41.9833 -87.4000 267° West 238 274 7,000 -49 Level Chicago TRACON
Thu 09:07:04 AM 41.9833 -87.4833 270° West 238 274 6,900 -750 Descending Chicago TRACON
Thu 09:08:04 AM 41.9833 -87.5833 270° West 233 268 5,500 -1,461 Descending Chicago TRACON
Thu 09:08:59 AM 41.9833 -87.6500 270° West 237 273 4,100 -1,357 Descending Chicago TRACON
Thu 09:09:59 AM 41.9833 -87.7333 270° West 197 227 2,900 -1,050 Descending Chicago TRACON
Thu 09:10:59 AM 41.9833 -87.8000 270° West 168 193 2,000 -850 Descending Chicago TRACON
Thu 09:11:59 AM 41.9833 -87.8500 270° West 143 165 1,200 -800 Descending Chicago TRACON
Thu 09:14:00 AM 41.9667 -87.9000 265° West  Level FlightAware Approximate

Login

Don't have an account? Register now (free) for customized features, flight alerts, and more!